Houghton Lake, MI

11:01 AM EDT on September 01, 2015 (GMT -0400)
Roscommon County | | Change Station
CLOSE
Current Station
Airport
Location: Houghton Lake,
Elevation: 1152 ft
Nearby Weather Stations

Elev 1152 ft 44.36 °N, 84.67 °W | Updated 8 minutes ago

Clear
Clear
73 °F
Feels Like 73 °F
N
5
Wind Variable Wind from WSW

Today
High -- | Low -- °F
--% Chance of Precip.
Yesterday
High -- | Low -- °F
Precip. -- in
7:01 AM 8:15 PM
Waning Gibbous, 88% visible
Pressure 30.08 in
Visibility 7.0 miles
Clouds Clear
Dew Point 66 °F
Humidity 79%
Rainfall 0.00 in
Snow Depth Not available.
UV 5 out of 12
Pollen 11.00 out of 12
Air Quality Not available.
Flu Activity Not available.
METAR KHTL 011453Z AUTO 25004KT 7SM CLR 23/19 A3009 RMK AO2 SLP184 T02280189 51001
Pressure 30.08 in
Visibility 7.0 miles
Clouds Clear
Dew Point 66 °F
Humidity 79%
Rainfall 0.00 in
Snow Depth Not available.
UV 5 out of 12
Pollen 11.00 out of 12
Air Quality Not available.
Flu Activity Not available.
METAR KHTL 011453Z AUTO 25004KT 7SM CLR 23/19 A3009 RMK AO2 SLP184 T02280189 51001
Nowcast | as of 11:00 am EDT on September 1, 2015

At 12 PM...mostly clear. Temperature 77. Southwest winds 6 mph. At 2 PM...mostly clear. Temperature 83. Southwest winds 7 mph. At 4 PM...mostly clear. Temperature 85. Southwest winds 8 mph. At 6 PM...mostly clear. Temperature 84. Southwest winds 8 mph.

×

10-Day Weather Forecast

×

Almanac

Astronomy

Sep. 01, 2015 Rise Set
Actual Time
Civil Twilight
Nautical Twilight
Astronomical Twilight
Moon
Length of Visible Light
Length of Day
Tomorrow will be .
, % of the Moon is Illuminated

Today's Extremes

State Highs State Lows

Community

WunderPhotos

Upload Photos

1,851,520 photos uploaded!

WunderBlogs® & News

Nearby

Air Quality

  Air Quality AQ Index Pollutant
Not available.

Snow Depth

Station Depth Elevation

Earthquake Activity

City Distance Mag. Time & Date
Minimum magnitude displayed is 2.5.

Coastal Water Temperatures

Place Temperature

Stations

Nearby Weather Stations

Station Location Temp. Windchill Dew Point Humidity Wind Precip. Elev Updated Type